sensor_id;sensor_type;location;lat;lon;timestamp;P1;durP1;ratioP1;P2;durP2;ratioP2
46407;SDS011;32110;45.724;21.276;2022-11-14T00:00:33;32.22;;;16.35;;
46407;SDS011;32110;45.724;21.276;2022-11-14T00:02:59;28.30;;;15.70;;
46407;SDS011;32110;45.724;21.276;2022-11-14T00:05:24;28.05;;;15.38;;
46407;SDS011;32110;45.724;21.276;2022-11-14T00:07:50;28.90;;;15.93;;
46407;SDS011;32110;45.724;21.276;2022-11-14T00:10:15;27.70;;;15.27;;
46407;SDS011;32110;45.724;21.276;2022-11-14T00:12:41;28.75;;;15.25;;
46407;SDS011;32110;45.724;21.276;2022-11-14T00:15:06;28.60;;;15.43;;
46407;SDS011;32110;45.724;21.276;2022-11-14T00:17:32;29.40;;;14.85;;
46407;SDS011;32110;45.724;21.276;2022-11-14T00:19:57;28.50;;;15.70;;
46407;SDS011;32110;45.724;21.276;2022-11-14T00:22:22;29.08;;;15.68;;
46407;SDS011;32110;45.724;21.276;2022-11-14T00:24:48;27.67;;;15.80;;
46407;SDS011;32110;45.724;21.276;2022-11-14T00:27:13;26.70;;;14.37;;
46407;SDS011;32110;45.724;21.276;2022-11-14T00:29:38;30.88;;;15.95;;
46407;SDS011;32110;45.724;21.276;2022-11-14T00:32:04;28.25;;;15.40;;
46407;SDS011;32110;45.724;21.276;2022-11-14T00:34:29;27.20;;;14.68;;
46407;SDS011;32110;45.724;21.276;2022-11-14T00:36:54;33.27;;;15.67;;
46407;SDS011;32110;45.724;21.276;2022-11-14T00:39:19;34.60;;;16.63;;
46407;SDS011;32110;45.724;21.276;2022-11-14T00:41:44;28.33;;;14.53;;
46407;SDS011;32110;45.724;21.276;2022-11-14T00:44:10;29.57;;;15.73;;
46407;SDS011;32110;45.724;21.276;2022-11-14T00:46:35;25.17;;;14.65;;
46407;SDS011;32110;45.724;21.276;2022-11-14T00:49:00;25.90;;;14.65;;
46407;SDS011;32110;45.724;21.276;2022-11-14T00:51:26;28.87;;;15.37;;
46407;SDS011;32110;45.724;21.276;2022-11-14T00:53:51;28.90;;;15.18;;
46407;SDS011;32110;45.724;21.276;2022-11-14T00:56:16;26.60;;;14.35;;
46407;SDS011;32110;45.724;21.276;2022-11-14T00:58:42;27.13;;;14.27;;
46407;SDS011;32110;45.724;21.276;2022-11-14T01:01:07;26.87;;;13.83;;
46407;SDS011;32110;45.724;21.276;2022-11-14T01:03:32;25.83;;;14.27;;
46407;SDS011;32110;45.724;21.276;2022-11-14T01:06:01;29.67;;;14.63;;
46407;SDS011;32110;45.724;21.276;2022-11-14T01:10:52;25.30;;;13.20;;
46407;SDS011;32110;45.724;21.276;2022-11-14T01:13:17;28.33;;;14.30;;
46407;SDS011;32110;45.724;21.276;2022-11-14T01:15:46;29.25;;;15.60;;
46407;SDS011;32110;45.724;21.276;2022-11-14T01:18:14;27.33;;;14.40;;
46407;SDS011;32110;45.724;21.276;2022-11-14T01:20:40;29.23;;;14.20;;
46407;SDS011;32110;45.724;21.276;2022-11-14T01:23:06;26.45;;;14.00;;
46407;SDS011;32110;45.724;21.276;2022-11-14T01:25:32;26.17;;;14.00;;
46407;SDS011;32110;45.724;21.276;2022-11-14T01:27:57;24.30;;;13.52;;
46407;SDS011;32110;45.724;21.276;2022-11-14T01:30:22;25.70;;;13.50;;
46407;SDS011;32110;45.724;21.276;2022-11-14T01:32:47;23.63;;;13.20;;
46407;SDS011;32110;45.724;21.276;2022-11-14T01:35:13;24.80;;;13.67;;
46407;SDS011;32110;45.724;21.276;2022-11-14T01:37:38;24.10;;;13.50;;
46407;SDS011;32110;45.724;21.276;2022-11-14T01:40:03;25.20;;;13.97;;
46407;SDS011;32110;45.724;21.276;2022-11-14T01:42:29;25.40;;;13.30;;
46407;SDS011;32110;45.724;21.276;2022-11-14T01:44:54;27.85;;;14.18;;
46407;SDS011;32110;45.724;21.276;2022-11-14T01:47:20;28.75;;;14.18;;
46407;SDS011;32110;45.724;21.276;2022-11-14T01:49:47;26.52;;;14.40;;
46407;SDS011;32110;45.724;21.276;2022-11-14T01:54:40;26.17;;;14.27;;
46407;SDS011;32110;45.724;21.276;2022-11-14T01:57:07;24.83;;;13.95;;
46407;SDS011;32110;45.724;21.276;2022-11-14T01:59:35;27.42;;;14.35;;
46407;SDS011;32110;45.724;21.276;2022-11-14T02:02:03;25.83;;;13.85;;
46407;SDS011;32110;45.724;21.276;2022-11-14T02:04:33;27.17;;;14.35;;
46407;SDS011;32110;45.724;21.276;2022-11-14T02:07:00;25.80;;;13.68;;
46407;SDS011;32110;45.724;21.276;2022-11-14T02:09:26;25.02;;;13.30;;
46407;SDS011;32110;45.724;21.276;2022-11-14T02:11:52;28.13;;;13.95;;
46407;SDS011;32110;45.724;21.276;2022-11-14T02:14:18;27.95;;;14.43;;
46407;SDS011;32110;45.724;21.276;2022-11-14T02:16:44;27.55;;;14.27;;
46407;SDS011;32110;45.724;21.276;2022-11-14T02:19:09;27.77;;;14.18;;
46407;SDS011;32110;45.724;21.276;2022-11-14T02:21:34;25.87;;;13.87;;
46407;SDS011;32110;45.724;21.276;2022-11-14T02:24:00;27.00;;;14.27;;
46407;SDS011;32110;45.724;21.276;2022-11-14T02:26:25;27.13;;;14.02;;
46407;SDS011;32110;45.724;21.276;2022-11-14T02:28:50;25.50;;;13.87;;
46407;SDS011;32110;45.724;21.276;2022-11-14T02:31:16;25.50;;;14.17;;
46407;SDS011;32110;45.724;21.276;2022-11-14T02:33:41;26.70;;;14.20;;
46407;SDS011;32110;45.724;21.276;2022-11-14T02:36:07;25.08;;;13.63;;
46407;SDS011;32110;45.724;21.276;2022-11-14T02:38:32;27.08;;;14.48;;
46407;SDS011;32110;45.724;21.276;2022-11-14T02:40:58;27.55;;;14.60;;
46407;SDS011;32110;45.724;21.276;2022-11-14T02:43:24;25.92;;;13.65;;
46407;SDS011;32110;45.724;21.276;2022-11-14T02:45:49;27.73;;;14.00;;
46407;SDS011;32110;45.724;21.276;2022-11-14T02:48:14;25.87;;;13.37;;
46407;SDS011;32110;45.724;21.276;2022-11-14T02:50:39;28.73;;;15.30;;
46407;SDS011;32110;45.724;21.276;2022-11-14T02:53:04;34.30;;;16.77;;
46407;SDS011;32110;45.724;21.276;2022-11-14T02:55:30;31.83;;;16.87;;
46407;SDS011;32110;45.724;21.276;2022-11-14T02:57:55;26.63;;;14.27;;
46407;SDS011;32110;45.724;21.276;2022-11-14T03:00:20;26.73;;;14.70;;
46407;SDS011;32110;45.724;21.276;2022-11-14T03:02:45;26.20;;;14.17;;
46407;SDS011;32110;45.724;21.276;2022-11-14T03:05:11;26.73;;;14.75;;
46407;SDS011;32110;45.724;21.276;2022-11-14T03:07:36;27.17;;;15.30;;
46407;SDS011;32110;45.724;21.276;2022-11-14T03:10:02;25.15;;;13.93;;
46407;SDS011;32110;45.724;21.276;2022-11-14T03:12:27;25.30;;;13.98;;
46407;SDS011;32110;45.724;21.276;2022-11-14T03:14:53;27.57;;;13.90;;
46407;SDS011;32110;45.724;21.276;2022-11-14T03:17:18;26.47;;;14.37;;
46407;SDS011;32110;45.724;21.276;2022-11-14T03:19:43;28.52;;;14.27;;
46407;SDS011;32110;45.724;21.276;2022-11-14T03:22:08;28.63;;;14.67;;
46407;SDS011;32110;45.724;21.276;2022-11-14T03:24:34;26.50;;;13.63;;
46407;SDS011;32110;45.724;21.276;2022-11-14T03:26:59;26.50;;;13.98;;
46407;SDS011;32110;45.724;21.276;2022-11-14T03:29:24;25.35;;;13.50;;
46407;SDS011;32110;45.724;21.276;2022-11-14T03:31:49;25.67;;;14.03;;
46407;SDS011;32110;45.724;21.276;2022-11-14T03:34:15;26.00;;;14.87;;
46407;SDS011;32110;45.724;21.276;2022-11-14T03:36:40;25.00;;;13.87;;
46407;SDS011;32110;45.724;21.276;2022-11-14T03:39:05;26.00;;;14.73;;
46407;SDS011;32110;45.724;21.276;2022-11-14T03:41:31;24.77;;;13.98;;
46407;SDS011;32110;45.724;21.276;2022-11-14T03:43:56;25.27;;;14.23;;
46407;SDS011;32110;45.724;21.276;2022-11-14T03:46:21;27.77;;;15.02;;
46407;SDS011;32110;45.724;21.276;2022-11-14T03:48:46;24.23;;;13.27;;
46407;SDS011;32110;45.724;21.276;2022-11-14T03:51:12;24.20;;;13.38;;
46407;SDS011;32110;45.724;21.276;2022-11-14T03:53:37;27.70;;;14.40;;
46407;SDS011;32110;45.724;21.276;2022-11-14T03:56:02;28.45;;;13.80;;
46407;SDS011;32110;45.724;21.276;2022-11-14T03:58:28;24.23;;;12.93;;
46407;SDS011;32110;45.724;21.276;2022-11-14T04:00:53;25.10;;;13.38;;
46407;SDS011;32110;45.724;21.276;2022-11-14T04:03:20;25.17;;;13.40;;
46407;SDS011;32110;45.724;21.276;2022-11-14T04:05:45;25.42;;;13.45;;
46407;SDS011;32110;45.724;21.276;2022-11-14T04:08:10;25.77;;;13.80;;
46407;SDS011;32110;45.724;21.276;2022-11-14T04:10:35;27.92;;;13.23;;
46407;SDS011;32110;45.724;21.276;2022-11-14T04:13:02;26.85;;;13.95;;
46407;SDS011;32110;45.724;21.276;2022-11-14T04:15:28;29.17;;;14.20;;
46407;SDS011;32110;45.724;21.276;2022-11-14T04:17:53;24.67;;;13.50;;
46407;SDS011;32110;45.724;21.276;2022-11-14T04:20:18;25.37;;;14.50;;
46407;SDS011;32110;45.724;21.276;2022-11-14T04:22:44;25.60;;;12.90;;
46407;SDS011;32110;45.724;21.276;2022-11-14T04:25:09;24.55;;;13.02;;
46407;SDS011;32110;45.724;21.276;2022-11-14T04:27:35;24.37;;;12.63;;
46407;SDS011;32110;45.724;21.276;2022-11-14T04:30:00;24.73;;;13.77;;
46407;SDS011;32110;45.724;21.276;2022-11-14T04:32:25;26.88;;;13.90;;
46407;SDS011;32110;45.724;21.276;2022-11-14T04:34:50;27.27;;;14.30;;
46407;SDS011;32110;45.724;21.276;2022-11-14T04:37:16;27.98;;;13.57;;
46407;SDS011;32110;45.724;21.276;2022-11-14T04:39:41;26.03;;;14.10;;
46407;SDS011;32110;45.724;21.276;2022-11-14T04:42:06;24.87;;;12.97;;
46407;SDS011;32110;45.724;21.276;2022-11-14T04:44:31;26.70;;;13.67;;
46407;SDS011;32110;45.724;21.276;2022-11-14T04:46:57;25.00;;;13.90;;
46407;SDS011;32110;45.724;21.276;2022-11-14T04:49:22;27.07;;;14.50;;
46407;SDS011;32110;45.724;21.276;2022-11-14T04:51:47;29.17;;;14.02;;
46407;SDS011;32110;45.724;21.276;2022-11-14T04:54:13;24.58;;;13.77;;
46407;SDS011;32110;45.724;21.276;2022-11-14T04:56:38;27.60;;;13.23;;
46407;SDS011;32110;45.724;21.276;2022-11-14T04:59:03;26.17;;;13.30;;
46407;SDS011;32110;45.724;21.276;2022-11-14T05:01:29;25.55;;;13.27;;
46407;SDS011;32110;45.724;21.276;2022-11-14T05:03:55;24.93;;;13.37;;
46407;SDS011;32110;45.724;21.276;2022-11-14T05:06:20;24.83;;;13.40;;
46407;SDS011;32110;45.724;21.276;2022-11-14T05:08:45;25.13;;;13.47;;
46407;SDS011;32110;45.724;21.276;2022-11-14T05:11:15;22.60;;;12.90;;
46407;SDS011;32110;45.724;21.276;2022-11-14T05:13:41;22.27;;;12.32;;
46407;SDS011;32110;45.724;21.276;2022-11-14T05:16:07;27.35;;;13.30;;
46407;SDS011;32110;45.724;21.276;2022-11-14T05:18:32;25.67;;;13.33;;
46407;SDS011;32110;45.724;21.276;2022-11-14T05:20:58;27.20;;;13.53;;
46407;SDS011;32110;45.724;21.276;2022-11-14T05:23:23;23.77;;;13.70;;
46407;SDS011;32110;45.724;21.276;2022-11-14T05:26:01;28.77;;;13.33;;
46407;SDS011;32110;45.724;21.276;2022-11-14T05:28:27;24.20;;;12.77;;
46407;SDS011;32110;45.724;21.276;2022-11-14T05:30:52;25.90;;;11.97;;
46407;SDS011;32110;45.724;21.276;2022-11-14T05:33:17;23.83;;;12.13;;
46407;SDS011;32110;45.724;21.276;2022-11-14T05:35:43;24.67;;;12.63;;
46407;SDS011;32110;45.724;21.276;2022-11-14T05:38:08;25.13;;;14.10;;
46407;SDS011;32110;45.724;21.276;2022-11-14T05:40:33;24.20;;;12.93;;
46407;SDS011;32110;45.724;21.276;2022-11-14T05:42:58;25.87;;;13.53;;
46407;SDS011;32110;45.724;21.276;2022-11-14T05:45:24;31.13;;;14.17;;
46407;SDS011;32110;45.724;21.276;2022-11-14T05:47:50;35.85;;;14.80;;
46407;SDS011;32110;45.724;21.276;2022-11-14T05:50:17;27.92;;;14.52;;
46407;SDS011;32110;45.724;21.276;2022-11-14T05:52:42;24.80;;;13.73;;
46407;SDS011;32110;45.724;21.276;2022-11-14T05:55:08;28.87;;;13.40;;
46407;SDS011;32110;45.724;21.276;2022-11-14T05:57:33;24.98;;;12.50;;
46407;SDS011;32110;45.724;21.276;2022-11-14T05:59:59;27.00;;;13.75;;
46407;SDS011;32110;45.724;21.276;2022-11-14T06:02:25;26.23;;;13.77;;
46407;SDS011;32110;45.724;21.276;2022-11-14T06:04:50;27.73;;;13.90;;
46407;SDS011;32110;45.724;21.276;2022-11-14T06:07:15;22.20;;;12.60;;
46407;SDS011;32110;45.724;21.276;2022-11-14T06:09:40;26.27;;;13.37;;
46407;SDS011;32110;45.724;21.276;2022-11-14T06:12:05;28.50;;;14.47;;
46407;SDS011;32110;45.724;21.276;2022-11-14T06:14:32;28.58;;;13.18;;
46407;SDS011;32110;45.724;21.276;2022-11-14T06:16:57;27.88;;;14.00;;
46407;SDS011;32110;45.724;21.276;2022-11-14T06:19:22;25.90;;;13.37;;
46407;SDS011;32110;45.724;21.276;2022-11-14T06:21:47;23.87;;;12.57;;
46407;SDS011;32110;45.724;21.276;2022-11-14T06:24:12;25.90;;;13.23;;
46407;SDS011;32110;45.724;21.276;2022-11-14T06:26:38;27.67;;;13.80;;
46407;SDS011;32110;45.724;21.276;2022-11-14T06:29:03;28.23;;;14.67;;
46407;SDS011;32110;45.724;21.276;2022-11-14T06:31:28;29.05;;;14.55;;
46407;SDS011;32110;45.724;21.276;2022-11-14T06:33:54;28.33;;;14.10;;
46407;SDS011;32110;45.724;21.276;2022-11-14T06:36:20;30.45;;;14.85;;
46407;SDS011;32110;45.724;21.276;2022-11-14T06:38:46;25.13;;;13.98;;
46407;SDS011;32110;45.724;21.276;2022-11-14T06:41:12;26.00;;;13.50;;
46407;SDS011;32110;45.724;21.276;2022-11-14T06:43:38;26.83;;;13.35;;
46407;SDS011;32110;45.724;21.276;2022-11-14T06:46:04;26.70;;;13.68;;
46407;SDS011;32110;45.724;21.276;2022-11-14T06:48:30;27.02;;;13.57;;
46407;SDS011;32110;45.724;21.276;2022-11-14T06:50:56;29.45;;;14.50;;
46407;SDS011;32110;45.724;21.276;2022-11-14T06:53:21;25.92;;;13.30;;
46407;SDS011;32110;45.724;21.276;2022-11-14T06:55:57;30.35;;;14.05;;
46407;SDS011;32110;45.724;21.276;2022-11-14T06:58:26;26.42;;;13.88;;
46407;SDS011;32110;45.724;21.276;2022-11-14T07:00:51;23.63;;;12.77;;
46407;SDS011;32110;45.724;21.276;2022-11-14T07:03:17;25.67;;;12.60;;
46407;SDS011;32110;45.724;21.276;2022-11-14T07:05:42;26.77;;;12.40;;
46407;SDS011;32110;45.724;21.276;2022-11-14T07:08:07;23.70;;;13.37;;
46407;SDS011;32110;45.724;21.276;2022-11-14T07:10:33;23.65;;;12.02;;
46407;SDS011;32110;45.724;21.276;2022-11-14T07:12:58;22.60;;;12.52;;
46407;SDS011;32110;45.724;21.276;2022-11-14T07:15:23;20.33;;;12.00;;
46407;SDS011;32110;45.724;21.276;2022-11-14T07:17:48;25.30;;;12.33;;
46407;SDS011;32110;45.724;21.276;2022-11-14T07:20:14;24.37;;;12.87;;
46407;SDS011;32110;45.724;21.276;2022-11-14T07:22:39;22.73;;;12.65;;
46407;SDS011;32110;45.724;21.276;2022-11-14T07:25:04;25.27;;;12.80;;
46407;SDS011;32110;45.724;21.276;2022-11-14T07:27:30;24.52;;;12.90;;
46407;SDS011;32110;45.724;21.276;2022-11-14T07:29:55;22.87;;;12.13;;
46407;SDS011;32110;45.724;21.276;2022-11-14T07:32:20;22.98;;;11.93;;
46407;SDS011;32110;45.724;21.276;2022-11-14T07:34:46;19.10;;;11.03;;
46407;SDS011;32110;45.724;21.276;2022-11-14T07:37:11;19.53;;;11.17;;
46407;SDS011;32110;45.724;21.276;2022-11-14T07:39:36;18.73;;;10.50;;
46407;SDS011;32110;45.724;21.276;2022-11-14T07:42:01;19.67;;;11.27;;
46407;SDS011;32110;45.724;21.276;2022-11-14T07:44:27;22.75;;;11.65;;
46407;SDS011;32110;45.724;21.276;2022-11-14T07:46:52;20.87;;;10.73;;
46407;SDS011;32110;45.724;21.276;2022-11-14T07:49:17;21.90;;;10.77;;
46407;SDS011;32110;45.724;21.276;2022-11-14T07:51:42;20.77;;;11.53;;
46407;SDS011;32110;45.724;21.276;2022-11-14T07:54:11;20.27;;;10.87;;
46407;SDS011;32110;45.724;21.276;2022-11-14T07:56:37;25.27;;;12.50;;
46407;SDS011;32110;45.724;21.276;2022-11-14T07:59:02;21.90;;;11.17;;
46407;SDS011;32110;45.724;21.276;2022-11-14T08:01:27;19.70;;;11.00;;
46407;SDS011;32110;45.724;21.276;2022-11-14T08:03:52;18.63;;;9.95;;
46407;SDS011;32110;45.724;21.276;2022-11-14T08:06:18;18.27;;;10.10;;
46407;SDS011;32110;45.724;21.276;2022-11-14T08:08:43;21.70;;;10.40;;
46407;SDS011;32110;45.724;21.276;2022-11-14T08:11:08;17.92;;;9.93;;
46407;SDS011;32110;45.724;21.276;2022-11-14T08:13:34;24.27;;;11.05;;
46407;SDS011;32110;45.724;21.276;2022-11-14T08:16:06;20.77;;;10.90;;
46407;SDS011;32110;45.724;21.276;2022-11-14T08:18:32;22.08;;;11.40;;
46407;SDS011;32110;45.724;21.276;2022-11-14T08:20:57;25.43;;;12.20;;
46407;SDS011;32110;45.724;21.276;2022-11-14T08:23:23;19.85;;;10.75;;
46407;SDS011;32110;45.724;21.276;2022-11-14T08:25:48;23.65;;;11.40;;
46407;SDS011;32110;45.724;21.276;2022-11-14T08:28:13;17.23;;;10.20;;
46407;SDS011;32110;45.724;21.276;2022-11-14T08:30:39;18.30;;;10.60;;
46407;SDS011;32110;45.724;21.276;2022-11-14T08:33:04;23.17;;;9.80;;
46407;SDS011;32110;45.724;21.276;2022-11-14T08:35:31;18.50;;;9.38;;
46407;SDS011;32110;45.724;21.276;2022-11-14T08:37:56;18.17;;;9.80;;
46407;SDS011;32110;45.724;21.276;2022-11-14T08:40:22;22.67;;;11.10;;
46407;SDS011;32110;45.724;21.276;2022-11-14T08:42:47;18.37;;;9.97;;
46407;SDS011;32110;45.724;21.276;2022-11-14T08:45:12;16.27;;;8.97;;
46407;SDS011;32110;45.724;21.276;2022-11-14T08:47:37;16.43;;;8.50;;
46407;SDS011;32110;45.724;21.276;2022-11-14T08:50:03;15.93;;;9.75;;
46407;SDS011;32110;45.724;21.276;2022-11-14T08:52:28;18.80;;;10.10;;
46407;SDS011;32110;45.724;21.276;2022-11-14T08:54:53;15.87;;;8.83;;
46407;SDS011;32110;45.724;21.276;2022-11-14T08:57:18;16.43;;;8.83;;
46407;SDS011;32110;45.724;21.276;2022-11-14T08:59:44;19.03;;;8.93;;
46407;SDS011;32110;45.724;21.276;2022-11-14T09:02:09;15.27;;;9.27;;
46407;SDS011;32110;45.724;21.276;2022-11-14T09:04:35;19.20;;;10.55;;
46407;SDS011;32110;45.724;21.276;2022-11-14T09:07:00;21.17;;;9.93;;
46407;SDS011;32110;45.724;21.276;2022-11-14T09:09:25;15.70;;;8.73;;
46407;SDS011;32110;45.724;21.276;2022-11-14T09:11:51;18.17;;;9.20;;
46407;SDS011;32110;45.724;21.276;2022-11-14T09:14:16;14.07;;;8.70;;
46407;SDS011;32110;45.724;21.276;2022-11-14T09:16:41;15.77;;;8.80;;
46407;SDS011;32110;45.724;21.276;2022-11-14T09:19:06;12.13;;;8.13;;
46407;SDS011;32110;45.724;21.276;2022-11-14T09:21:31;14.13;;;8.23;;
46407;SDS011;32110;45.724;21.276;2022-11-14T09:23:57;15.43;;;8.67;;
46407;SDS011;32110;45.724;21.276;2022-11-14T09:26:22;17.17;;;8.20;;
46407;SDS011;32110;45.724;21.276;2022-11-14T09:28:47;15.50;;;8.30;;
46407;SDS011;32110;45.724;21.276;2022-11-14T09:31:12;13.27;;;7.90;;
46407;SDS011;32110;45.724;21.276;2022-11-14T09:33:38;13.70;;;7.50;;
46407;SDS011;32110;45.724;21.276;2022-11-14T09:36:04;13.55;;;8.55;;
46407;SDS011;32110;45.724;21.276;2022-11-14T09:38:30;14.43;;;8.35;;
46407;SDS011;32110;45.724;21.276;2022-11-14T09:43:44;10.85;;;7.03;;
46407;SDS011;32110;45.724;21.276;2022-11-14T09:46:19;14.10;;;7.25;;
46407;SDS011;32110;45.724;21.276;2022-11-14T09:48:45;12.00;;;7.72;;
46407;SDS011;32110;45.724;21.276;2022-11-14T09:51:14;11.98;;;7.03;;
46407;SDS011;32110;45.724;21.276;2022-11-14T09:53:47;12.77;;;7.55;;
46407;SDS011;32110;45.724;21.276;2022-11-14T09:56:15;12.90;;;7.40;;
46407;SDS011;32110;45.724;21.276;2022-11-14T09:58:43;15.32;;;7.30;;
46407;SDS011;32110;45.724;21.276;2022-11-14T10:01:10;15.10;;;7.53;;
46407;SDS011;32110;45.724;21.276;2022-11-14T10:06:13;14.40;;;8.10;;
46407;SDS011;32110;45.724;21.276;2022-11-14T10:16:57;15.52;;;8.80;;
46407;SDS011;32110;45.724;21.276;2022-11-14T10:25:12;15.60;;;5.90;;
46407;SDS011;32110;45.724;21.276;2022-11-14T10:27:42;7.95;;;5.68;;
46407;SDS011;32110;45.724;21.276;2022-11-14T10:30:17;12.30;;;6.43;;
46407;SDS011;32110;45.724;21.276;2022-11-14T10:35:37;11.30;;;6.25;;
46407;SDS011;32110;45.724;21.276;2022-11-14T10:38:18;13.00;;;5.95;;
46407;SDS011;32110;45.724;21.276;2022-11-14T10:45:43;13.80;;;5.68;;
46407;SDS011;32110;45.724;21.276;2022-11-14T10:48:12;10.20;;;6.20;;
46407;SDS011;32110;45.724;21.276;2022-11-14T10:50:44;12.05;;;5.60;;
46407;SDS011;32110;45.724;21.276;2022-11-14T10:53:15;9.38;;;5.85;;
46407;SDS011;32110;45.724;21.276;2022-11-14T10:55:44;10.63;;;5.88;;
46407;SDS011;32110;45.724;21.276;2022-11-14T10:58:10;10.65;;;5.45;;
46407;SDS011;32110;45.724;21.276;2022-11-14T11:00:38;18.63;;;6.35;;
46407;SDS011;32110;45.724;21.276;2022-11-14T11:03:03;15.40;;;5.97;;
46407;SDS011;32110;45.724;21.276;2022-11-14T11:05:29;10.13;;;6.00;;
46407;SDS011;32110;45.724;21.276;2022-11-14T11:07:56;9.77;;;5.47;;
46407;SDS011;32110;45.724;21.276;2022-11-14T11:10:41;11.10;;;6.35;;
46407;SDS011;32110;45.724;21.276;2022-11-14T11:13:32;13.18;;;6.13;;
46407;SDS011;32110;45.724;21.276;2022-11-14T11:15:58;13.80;;;5.78;;
46407;SDS011;32110;45.724;21.276;2022-11-14T11:18:41;11.07;;;5.75;;
46407;SDS011;32110;45.724;21.276;2022-11-14T11:23:32;8.93;;;5.47;;
46407;SDS011;32110;45.724;21.276;2022-11-14T11:26:16;10.32;;;6.00;;
46407;SDS011;32110;45.724;21.276;2022-11-14T11:28:42;8.75;;;5.38;;
46407;SDS011;32110;45.724;21.276;2022-11-14T11:31:08;10.40;;;6.03;;
46407;SDS011;32110;45.724;21.276;2022-11-14T11:33:34;11.95;;;6.10;;
46407;SDS011;32110;45.724;21.276;2022-11-14T11:36:04;11.05;;;6.35;;
46407;SDS011;32110;45.724;21.276;2022-11-14T11:38:31;9.93;;;6.65;;
46407;SDS011;32110;45.724;21.276;2022-11-14T11:41:39;10.90;;;5.80;;
46407;SDS011;32110;45.724;21.276;2022-11-14T11:46:16;10.50;;;6.50;;
46407;SDS011;32110;45.724;21.276;2022-11-14T11:48:42;11.23;;;6.30;;
46407;SDS011;32110;45.724;21.276;2022-11-14T11:51:15;9.32;;;6.47;;
46407;SDS011;32110;45.724;21.276;2022-11-14T11:53:42;9.40;;;5.78;;
46407;SDS011;32110;45.724;21.276;2022-11-14T11:56:12;9.88;;;6.10;;
46407;SDS011;32110;45.724;21.276;2022-11-14T11:58:45;11.15;;;5.95;;
46407;SDS011;32110;45.724;21.276;2022-11-14T12:01:11;8.68;;;5.32;;
46407;SDS011;32110;45.724;21.276;2022-11-14T12:03:37;14.60;;;6.32;;
46407;SDS011;32110;45.724;21.276;2022-11-14T12:11:05;10.55;;;6.38;;
46407;SDS011;32110;45.724;21.276;2022-11-14T12:24:17;11.30;;;6.65;;
46407;SDS011;32110;45.724;21.276;2022-11-14T12:26:50;18.33;;;7.07;;
46407;SDS011;32110;45.724;21.276;2022-11-14T12:31:48;16.95;;;7.20;;
46407;SDS011;32110;45.724;21.276;2022-11-14T12:34:25;13.15;;;6.93;;
46407;SDS011;32110;45.724;21.276;2022-11-14T12:36:51;13.13;;;7.18;;
46407;SDS011;32110;45.724;21.276;2022-11-14T12:39:20;11.25;;;7.35;;
46407;SDS011;32110;45.724;21.276;2022-11-14T12:41:46;13.05;;;6.82;;
46407;SDS011;32110;45.724;21.276;2022-11-14T12:44:16;14.38;;;7.30;;
46407;SDS011;32110;45.724;21.276;2022-11-14T12:54:57;14.13;;;7.85;;
46407;SDS011;32110;45.724;21.276;2022-11-14T12:57:38;14.07;;;7.50;;
46407;SDS011;32110;45.724;21.276;2022-11-14T13:00:11;13.60;;;8.07;;
46407;SDS011;32110;45.724;21.276;2022-11-14T13:05:12;13.70;;;7.30;;
46407;SDS011;32110;45.724;21.276;2022-11-14T13:12:41;12.90;;;7.90;;
46407;SDS011;32110;45.724;21.276;2022-11-14T13:18:28;16.95;;;9.40;;
46407;SDS011;32110;45.724;21.276;2022-11-14T13:23:59;13.90;;;7.32;;
46407;SDS011;32110;45.724;21.276;2022-11-14T13:28:50;15.47;;;7.67;;
46407;SDS011;32110;45.724;21.276;2022-11-14T13:33:42;11.80;;;7.07;;
46407;SDS011;32110;45.724;21.276;2022-11-14T13:51:19;12.02;;;7.50;;
46407;SDS011;32110;45.724;21.276;2022-11-14T13:53:46;10.07;;;7.13;;
46407;SDS011;32110;45.724;21.276;2022-11-14T13:56:18;12.73;;;7.83;;
46407;SDS011;32110;45.724;21.276;2022-11-14T13:59:02;12.57;;;7.78;;
46407;SDS011;32110;45.724;21.276;2022-11-14T14:01:38;11.20;;;7.80;;
46407;SDS011;32110;45.724;21.276;2022-11-14T14:06:54;18.08;;;7.80;;
46407;SDS011;32110;45.724;21.276;2022-11-14T14:14:31;13.30;;;7.38;;
46407;SDS011;32110;45.724;21.276;2022-11-14T14:17:21;11.68;;;7.57;;
46407;SDS011;32110;45.724;21.276;2022-11-14T14:30:10;11.90;;;8.00;;
46407;SDS011;32110;45.724;21.276;2022-11-14T14:32:35;12.98;;;7.45;;
46407;SDS011;32110;45.724;21.276;2022-11-14T14:37:51;12.13;;;7.15;;
46407;SDS011;32110;45.724;21.276;2022-11-14T14:40:24;12.73;;;7.68;;
46407;SDS011;32110;45.724;21.276;2022-11-14T14:42:50;15.13;;;8.23;;
46407;SDS011;32110;45.724;21.276;2022-11-14T14:45:17;14.55;;;8.30;;
46407;SDS011;32110;45.724;21.276;2022-11-14T14:47:43;21.65;;;8.43;;
46407;SDS011;32110;45.724;21.276;2022-11-14T14:50:47;32.58;;;12.02;;
46407;SDS011;32110;45.724;21.276;2022-11-14T14:53:02;39.50;;;16.33;;
46407;SDS011;32110;45.724;21.276;2022-11-14T14:55:31;31.42;;;13.45;;
46407;SDS011;32110;45.724;21.276;2022-11-14T14:58:13;31.50;;;12.48;;
46407;SDS011;32110;45.724;21.276;2022-11-14T15:00:39;29.48;;;12.32;;
46407;SDS011;32110;45.724;21.276;2022-11-14T15:03:13;37.20;;;13.57;;
46407;SDS011;32110;45.724;21.276;2022-11-14T15:05:39;31.13;;;14.63;;
46407;SDS011;32110;45.724;21.276;2022-11-14T15:08:04;37.42;;;12.73;;
46407;SDS011;32110;45.724;21.276;2022-11-14T15:10:29;34.43;;;13.17;;
46407;SDS011;32110;45.724;21.276;2022-11-14T15:12:58;27.08;;;11.18;;
46407;SDS011;32110;45.724;21.276;2022-11-14T15:15:23;32.30;;;11.52;;
46407;SDS011;32110;45.724;21.276;2022-11-14T15:17:52;36.35;;;13.18;;
46407;SDS011;32110;45.724;21.276;2022-11-14T15:20:26;25.23;;;12.02;;
46407;SDS011;32110;45.724;21.276;2022-11-14T15:25:35;30.65;;;11.80;;
46407;SDS011;32110;45.724;21.276;2022-11-14T15:28:00;29.20;;;10.98;;
46407;SDS011;32110;45.724;21.276;2022-11-14T15:30:30;33.80;;;12.27;;
46407;SDS011;32110;45.724;21.276;2022-11-14T15:32:56;38.17;;;13.32;;
46407;SDS011;32110;45.724;21.276;2022-11-14T15:35:23;31.60;;;14.20;;
46407;SDS011;32110;45.724;21.276;2022-11-14T15:37:59;33.80;;;14.15;;
46407;SDS011;32110;45.724;21.276;2022-11-14T15:40:24;31.67;;;14.52;;
46407;SDS011;32110;45.724;21.276;2022-11-14T15:42:50;42.05;;;17.20;;
46407;SDS011;32110;45.724;21.276;2022-11-14T15:45:22;44.90;;;15.97;;
46407;SDS011;32110;45.724;21.276;2022-11-14T15:47:47;42.55;;;17.42;;
46407;SDS011;32110;45.724;21.276;2022-11-14T15:52:50;33.80;;;16.38;;
46407;SDS011;32110;45.724;21.276;2022-11-14T15:55:18;34.25;;;15.55;;
46407;SDS011;32110;45.724;21.276;2022-11-14T15:57:44;35.20;;;15.80;;
46407;SDS011;32110;45.724;21.276;2022-11-14T16:00:12;29.13;;;16.47;;
46407;SDS011;32110;45.724;21.276;2022-11-14T16:05:13;36.95;;;15.32;;
46407;SDS011;32110;45.724;21.276;2022-11-14T16:07:38;27.65;;;14.27;;
46407;SDS011;32110;45.724;21.276;2022-11-14T16:10:25;29.83;;;14.68;;
46407;SDS011;32110;45.724;21.276;2022-11-14T16:12:49;28.77;;;14.25;;
46407;SDS011;32110;45.724;21.276;2022-11-14T16:15:15;32.92;;;15.25;;
46407;SDS011;32110;45.724;21.276;2022-11-14T16:17:41;27.95;;;15.15;;